Bemis Heights, New York
Current Conditions -  °F | °C
As of 1:51 PM on Friday 28 Nov 2014 (Local Time) from KALB Reporting Station
Broken Clouds Broken Clouds  
Wind Chill: -8°   Ceiling: 3200
Heat Index: -2°   Visibility: 10mi
Dew Point: -8°   Wind: 17mph
Humidity: 61%   Direction: 310°NW
Pressure: 30.15"   Gusts: 28mph
Location:  43.0236°N, 73.676°W
Report Text: KALB 281851Z 31015G24KT 10SM BKN032 BKN044 M02/M08 A3015 RMK AO2 SLP212 BKN032 V SCT VCSH N AND SE-SW OCNL DRSN T10171083
Loading
Personal Weather Stations






























Interactive Weather Map New forecast layout! Learn more

10-Day Weather Forecast

Advertisements
Track Severe Weather on mobile